Time;durP1;ratioP1;P1;durP2;ratioP2;P2;SDS_P1;SDS_P2;PMS_P1;PMS_P2;Temp;Humidity;BMP_temperature;BMP_pressure;BME280_temperature;BME280_humidity;BME280_pressure;Samples;Min_cycle;Max_cycle;Signal;HPM_P1;HPM_P2
2023/03/11 00:00:24;;;;;;;3.05;0.47;;;0.80;99.90;;;;;;5033633;28;20107;-71
2023/03/11 00:02:52;;;;;;;4.13;0.50;;;0.30;99.90;;;;;;5033771;28;20041;-70
2023/03/11 00:05:24;;;;;;;4.63;0.70;;;0.70;99.90;;;;;;5015694;28;20136;-72
2023/03/11 00:07:50;;;;;;;2.63;0.50;;;0.40;99.90;;;;;;5016294;28;20495;-72
2023/03/11 00:10:19;;;;;;;3.10;0.70;;;1.80;99.90;;;;;;5016103;28;20061;-73
2023/03/11 00:12:45;;;;;;;4.35;0.55;;;0.30;99.90;;;;;;5015895;28;20044;-72
2023/03/11 00:15:11;;;;;;;2.17;0.70;;;1.20;99.90;;;;;;5016013;28;20128;-72
2023/03/11 00:17:37;;;;;;;9.25;1.10;;;0.70;99.90;;;;;;5033682;28;20041;-72
2023/03/11 00:20:05;;;;;;;6.32;0.70;;;0.60;99.90;;;;;;5033696;28;20057;-72
2023/03/11 00:22:31;;;;;;;3.30;0.57;;;0.40;99.90;;;;;;5016246;28;20060;-72
2023/03/11 00:24:57;;;;;;;3.05;0.73;;;0.40;99.90;;;;;;5033310;28;20045;-73
2023/03/11 00:27:23;;;;;;;5.75;0.80;;;0.40;99.90;;;;;;5034010;28;20128;-72
2023/03/11 00:29:48;;;;;;;4.95;0.70;;;0.20;99.90;;;;;;5016197;28;20065;-72
2023/03/11 00:32:15;;;;;;;4.18;0.50;;;0.30;99.90;;;;;;5033736;28;20049;-72
2023/03/11 00:34:40;;;;;;;3.08;0.70;;;0.20;99.90;;;;;;5033123;28;20102;-72
2023/03/11 00:37:06;;;;;;;3.10;0.65;;;0.50;99.90;;;;;;5015977;28;20136;-72
2023/03/11 00:39:33;;;;;;;3.78;0.80;;;1.60;99.90;;;;;;5034930;28;20045;-72
2023/03/11 00:41:59;;;;;;;3.13;0.63;;;0.60;99.90;;;;;;5020152;28;20041;-71
2023/03/11 00:44:24;;;;;;;4.05;0.60;;;0.10;99.90;;;;;;5020343;28;20048;-71
2023/03/11 00:46:50;;;;;;;14.05;0.90;;;0.30;99.90;;;;;;5003653;28;20050;-72
2023/03/11 00:49:16;;;;;;;5.95;1.27;;;0.10;99.90;;;;;;5037688;28;20046;-71
2023/03/11 00:51:42;;;;;;;4.07;0.80;;;0.90;99.90;;;;;;4987480;28;20056;-71
2023/03/11 00:54:07;;;;;;;3.95;0.75;;;1.50;99.90;;;;;;5019601;28;20057;-71
2023/03/11 00:56:33;;;;;;;8.40;1.63;;;0.20;99.90;;;;;;4987583;28;20057;-71
2023/03/11 00:58:59;;;;;;;1.63;0.50;;;0.50;99.90;;;;;;5020043;28;20041;-71
2023/03/11 01:01:24;;;;;;;4.63;0.40;;;1.30;99.90;;;;;;5020479;28;20133;-71
2023/03/11 01:03:50;;;;;;;1.70;0.55;;;0.30;99.90;;;;;;5037870;28;20056;-71
2023/03/11 01:06:16;;;;;;;7.10;0.45;;;0.10;99.90;;;;;;5021264;28;20049;-71
2023/03/11 01:08:42;;;;;;;2.47;0.82;;;0.20;99.90;;;;;;5038187;28;20101;-71
2023/03/11 01:11:08;;;;;;;1.45;0.30;;;0.30;99.90;;;;;;5037726;28;20052;-70
2023/03/11 01:13:35;;;;;;;3.72;0.40;;;0.00;99.90;;;;;;5037720;28;20053;-71
2023/03/11 01:16:01;;;;;;;1.50;0.40;;;1.20;99.90;;;;;;5019246;28;20057;-70
2023/03/11 01:18:27;;;;;;;2.80;0.40;;;0.10;99.90;;;;;;5036861;28;20045;-70
2023/03/11 01:20:53;;;;;;;4.07;0.40;;;0.10;99.90;;;;;;5019016;28;20054;-71
2023/03/11 01:23:19;;;;;;;1.63;0.30;;;0.30;99.90;;;;;;5003003;28;20439;-72
2023/03/11 01:25:45;;;;;;;3.05;0.30;;;1.00;99.90;;;;;;5036714;28;20052;-71
2023/03/11 01:28:11;;;;;;;1.00;0.20;;;0.00;99.90;;;;;;5036794;28;20072;-72
2023/03/11 01:30:39;;;;;;;2.58;0.40;;;0.00;99.90;;;;;;5018929;28;20523;-72
2023/03/11 01:33:07;;;;;;;6.55;0.47;;;1.10;99.90;;;;;;5019339;28;20508;-72
2023/03/11 01:35:34;;;;;;;5.60;0.63;;;-0.10;99.90;;;;;;5018255;28;20088;-71
2023/03/11 01:38:00;;;;;;;2.03;0.40;;;1.30;99.90;;;;;;5018507;28;20378;-70
2023/03/11 01:40:30;;;;;;;1.10;0.40;;;1.30;99.90;;;;;;5018715;28;20575;-70
2023/03/11 01:42:58;;;;;;;5.47;0.30;;;1.30;99.90;;;;;;5019017;28;20507;-70
2023/03/11 01:46:01;;;;;;;1.52;0.63;;;0.20;99.90;;;;;;5002392;28;20088;-70
2023/03/11 01:48:27;;;;;;;2.47;0.20;;;0.40;99.90;;;;;;5036066;28;20042;-70
2023/03/11 01:50:53;;;;;;;3.88;0.50;;;0.90;99.90;;;;;;5036656;28;20077;-71
2023/03/11 01:53:19;;;;;;;1.77;0.52;;;0.20;99.90;;;;;;5036331;28;20542;-72
2023/03/11 01:55:46;;;;;;;3.33;0.40;;;0.20;99.90;;;;;;5018721;28;20056;-71
2023/03/11 01:58:18;;;;;;;3.80;0.32;;;0.60;99.90;;;;;;5018076;28;20061;-71
2023/03/11 02:00:44;;;;;;;2.38;0.30;;;1.00;99.90;;;;;;5018299;28;20153;-71
2023/03/11 02:03:32;;;;;;;2.28;0.30;;;0.30;99.90;;;;;;5035549;28;20566;-71
2023/03/11 02:06:01;;;;;;;1.85;0.30;;;0.20;99.90;;;;;;5017783;28;20481;-71
2023/03/11 02:08:28;;;;;;;1.15;0.20;;;0.20;99.90;;;;;;5001882;28;20083;-71
2023/03/11 02:10:56;;;;;;;2.88;0.38;;;1.60;99.90;;;;;;5035477;28;20068;-71
2023/03/11 02:13:22;;;;;;;3.42;0.22;;;0.60;99.90;;;;;;5035629;28;20049;-73
2023/03/11 02:15:48;;;;;;;0.70;0.22;;;0.20;99.90;;;;;;5018167;28;20053;-71
2023/03/11 02:18:19;;;;;;;2.15;0.30;;;0.00;99.90;;;;;;5017904;28;20054;-71
2023/03/11 02:20:58;;;;;;;2.33;0.60;;;0.70;99.90;;;;;;5035427;28;20050;-70
2023/03/11 02:23:27;;;;;;;1.38;0.30;;;0.00;99.90;;;;;;5035624;28;20053;-70
2023/03/11 02:26:02;;;;;;;2.25;0.40;;;0.00;99.90;;;;;;5035190;28;20230;-71
2023/03/11 02:28:30;;;;;;;3.22;1.35;;;0.30;99.90;;;;;;5035350;28;20037;-71
2023/03/11 02:30:56;;;;;;;3.75;0.50;;;0.80;99.90;;;;;;5035362;28;20508;-70
2023/03/11 02:33:28;;;;;;;1.38;0.47;;;-0.20;99.90;;;;;;5035277;28;20132;-71
2023/03/11 02:35:53;;;;;;;4.03;0.50;;;0.20;99.90;;;;;;5034769;28;20049;-70
2023/03/11 02:38:19;;;;;;;1.90;0.30;;;0.70;99.90;;;;;;5035088;28;20042;-71
2023/03/11 02:40:57;;;;;;;0.80;0.30;;;-0.10;99.90;;;;;;5017755;28;20484;-71
2023/03/11 02:43:44;;;;;;;2.55;0.22;;;-0.10;99.90;;;;;;5035256;28;20045;-70
2023/03/11 02:46:11;;;;;;;2.47;0.30;;;0.00;99.90;;;;;;5018096;28;20087;-71
2023/03/11 02:48:38;;;;;;;1.20;0.32;;;0.20;99.90;;;;;;5034848;28;20053;-70
2023/03/11 02:51:04;;;;;;;2.25;0.30;;;0.30;99.90;;;;;;5034656;28;20050;-71
2023/03/11 02:53:35;;;;;;;2.25;0.30;;;-0.20;99.90;;;;;;5034837;28;20100;-71
2023/03/11 02:56:01;;;;;;;1.20;0.20;;;-0.20;99.90;;;;;;5034999;28;20045;-71
2023/03/11 02:58:26;;;;;;;0.93;0.30;;;-0.10;99.90;;;;;;5017033;28;20466;-70
2023/03/11 03:00:52;;;;;;;3.40;0.30;;;0.00;99.90;;;;;;5016913;28;20047;-71
2023/03/11 03:03:18;;;;;;;0.63;0.20;;;1.00;99.90;;;;;;5033886;28;20128;-70
2023/03/11 03:05:44;;;;;;;2.97;1.35;;;-0.10;99.90;;;;;;5016145;28;20100;-70
2023/03/11 03:08:10;;;;;;;2.50;0.28;;;0.40;99.90;;;;;;5034284;28;20107;-70
2023/03/11 03:10:36;;;;;;;1.23;0.30;;;0.80;99.90;;;;;;5034919;28;20045;-71
2023/03/11 03:13:02;;;;;;;1.88;0.30;;;-0.10;99.90;;;;;;5034448;28;20045;-70
2023/03/11 03:15:29;;;;;;;1.00;0.20;;;-0.20;99.90;;;;;;5000503;28;20049;-70
2023/03/11 03:17:55;;;;;;;1.60;0.20;;;-0.50;99.90;;;;;;5016733;28;20045;-70
2023/03/11 03:20:21;;;;;;;1.35;0.30;;;-0.30;99.90;;;;;;5016592;28;20045;-71
2023/03/11 03:22:48;;;;;;;1.67;0.30;;;0.00;99.90;;;;;;5034282;28;20045;-71
2023/03/11 03:25:14;;;;;;;1.13;0.20;;;1.10;99.90;;;;;;5000533;28;20053;-71
2023/03/11 03:27:39;;;;;;;0.88;0.32;;;-0.30;99.90;;;;;;5034009;28;20143;-71
2023/03/11 03:30:07;;;;;;;3.75;0.70;;;0.90;99.90;;;;;;5000200;28;20052;-71
2023/03/11 03:32:34;;;;;;;0.63;0.30;;;-0.40;99.90;;;;;;5033907;28;20053;-73
2023/03/11 03:35:00;;;;;;;0.32;0.22;;;0.50;99.90;;;;;;4999498;28;20378;-72
2023/03/11 03:37:27;;;;;;;2.72;0.50;;;-0.20;99.90;;;;;;5016544;28;20041;-72
2023/03/11 03:39:53;;;;;;;3.70;0.30;;;-0.30;99.90;;;;;;5034099;28;20469;-72
2023/03/11 03:42:19;;;;;;;0.50;0.20;;;0.70;99.90;;;;;;5000064;28;20481;-73
2023/03/11 03:44:45;;;;;;;2.67;0.30;;;0.80;99.90;;;;;;5033828;28;20041;-72
2023/03/11 03:47:10;;;;;;;1.02;0.20;;;-0.30;99.90;;;;;;4999561;28;20095;-74
2023/03/11 03:49:37;;;;;;;1.27;0.25;;;-0.40;99.90;;;;;;5000136;28;20473;-72
2023/03/11 03:52:05;;;;;;;3.35;0.20;;;0.70;99.90;;;;;;5016503;28;20049;-72
2023/03/11 03:54:31;;;;;;;1.08;0.20;;;-0.30;99.90;;;;;;5033873;28;20095;-72
2023/03/11 03:56:57;;;;;;;0.95;0.20;;;0.70;99.90;;;;;;5016451;28;20112;-72
2023/03/11 03:59:23;;;;;;;4.28;0.40;;;-0.30;99.90;;;;;;5015971;28;20611;-72
2023/03/11 04:01:49;;;;;;;1.60;0.32;;;-0.50;99.90;;;;;;5033737;28;20080;-71
2023/03/11 04:04:14;;;;;;;0.90;0.30;;;-0.70;99.90;;;;;;4983053;28;20046;-71
2023/03/11 04:06:41;;;;;;;1.95;0.30;;;0.00;99.90;;;;;;4983708;28;20114;-72
2023/03/11 04:09:09;;;;;;;1.38;0.30;;;-0.50;99.90;;;;;;5015861;28;20061;-71
2023/03/11 04:11:34;;;;;;;2.05;0.28;;;-0.50;99.90;;;;;;5033553;28;20084;-71
2023/03/11 04:14:01;;;;;;;0.95;0.20;;;0.00;99.90;;;;;;5015846;28;20497;-71
2023/03/11 04:16:27;;;;;;;0.93;0.22;;;-0.30;99.90;;;;;;5033426;28;20049;-71
2023/03/11 04:18:52;;;;;;;4.32;0.40;;;-0.20;99.90;;;;;;5015708;28;20432;-71
2023/03/11 04:21:18;;;;;;;1.02;0.20;;;-0.60;99.90;;;;;;5016264;28;20045;-71
2023/03/11 04:23:44;;;;;;;1.42;0.40;;;-0.60;99.90;;;;;;5033901;28;20049;-71
2023/03/11 04:26:10;;;;;;;0.45;0.30;;;-0.40;99.90;;;;;;5033503;28;20405;-71
2023/03/11 04:28:35;;;;;;;3.60;0.30;;;0.10;99.90;;;;;;5033366;28;20531;-69
2023/03/11 04:31:01;;;;;;;0.95;0.45;;;0.20;99.90;;;;;;5015652;28;20052;-71
2023/03/11 04:33:27;;;;;;;2.05;0.30;;;-0.50;99.90;;;;;;5033181;28;20048;-69
2023/03/11 04:35:52;;;;;;;1.02;0.20;;;0.10;99.90;;;;;;5032891;28;20447;-69
2023/03/11 04:38:18;;;;;;;0.75;0.20;;;0.80;99.90;;;;;;5033654;28;20075;-69
2023/03/11 04:40:44;;;;;;;1.02;0.20;;;0.60;99.90;;;;;;4999262;28;20057;-69
2023/03/11 04:43:09;;;;;;;5.05;0.88;;;0.50;99.90;;;;;;5016092;28;20504;-70
2023/03/11 04:45:39;;;;;;;1.25;0.52;;;-0.30;99.90;;;;;;5033037;28;20118;-71
2023/03/11 04:48:04;;;;;;;1.77;0.30;;;-0.50;99.90;;;;;;5033092;28;20507;-70
2023/03/11 04:50:30;;;;;;;3.22;0.40;;;-0.60;99.90;;;;;;5033196;28;20046;-72
2023/03/11 04:52:56;;;;;;;0.65;0.30;;;-0.60;99.90;;;;;;5015499;28;20050;-71
2023/03/11 04:55:22;;;;;;;1.92;0.20;;;0.10;99.90;;;;;;5033371;28;20057;-71
2023/03/11 04:57:47;;;;;;;1.48;0.30;;;0.00;99.90;;;;;;5033187;28;20183;-71
2023/03/11 05:00:14;;;;;;;1.15;0.30;;;0.10;99.90;;;;;;5032860;28;20049;-71
2023/03/11 05:02:41;;;;;;;2.13;0.30;;;-0.70;99.90;;;;;;5015414;28;20049;-71
2023/03/11 05:05:08;;;;;;;0.88;0.30;;;-0.70;99.90;;;;;;5015102;28;20042;-71
2023/03/11 05:07:35;;;;;;;3.80;0.30;;;-0.60;99.90;;;;;;5033050;28;20042;-70
2023/03/11 05:10:02;;;;;;;2.72;0.57;;;0.20;99.90;;;;;;5032770;28;20535;-71
2023/03/11 05:12:28;;;;;;;0.73;0.28;;;-0.20;99.90;;;;;;4999114;28;20068;-71
2023/03/11 05:14:53;;;;;;;1.80;0.28;;;-0.50;99.90;;;;;;5015348;28;20136;-72
2023/03/11 05:17:19;;;;;;;0.50;0.20;;;-0.10;99.90;;;;;;5015330;28;20124;-72
2023/03/11 05:19:45;;;;;;;1.67;0.20;;;-0.70;99.90;;;;;;5033017;28;20432;-71
2023/03/11 05:22:11;;;;;;;0.40;0.25;;;-0.80;99.90;;;;;;5033092;28;20076;-72
2023/03/11 05:24:37;;;;;;;0.98;0.22;;;-1.00;99.90;;;;;;5015508;28;20079;-71
2023/03/11 05:27:04;;;;;;;0.75;0.20;;;0.60;99.90;;;;;;5036543;28;20049;-72
2023/03/11 05:29:30;;;;;;;1.23;0.30;;;-0.90;99.90;;;;;;5018571;28;20045;-72
2023/03/11 05:31:56;;;;;;;2.00;0.43;;;-0.10;99.90;;;;;;5036448;28;20128;-72
2023/03/11 05:34:22;;;;;;;0.95;0.30;;;-0.10;99.90;;;;;;5018328;28;20120;-72
2023/03/11 05:36:47;;;;;;;2.00;0.25;;;-1.20;99.90;;;;;;5036107;28;20056;-73
2023/03/11 05:39:13;;;;;;;4.65;0.40;;;-1.10;99.90;;;;;;5036364;28;20045;-72
2023/03/11 05:41:39;;;;;;;6.28;1.25;;;-0.50;99.90;;;;;;5002351;28;20053;-72
2023/03/11 05:44:05;;;;;;;0.82;0.80;;;-1.40;99.90;;;;;;5018433;28;20045;-73
2023/03/11 05:46:31;;;;;;;1.65;0.38;;;-1.50;99.90;;;;;;5018828;28;20174;-73
2023/03/11 05:49:01;;;;;;;1.92;0.40;;;-1.40;99.90;;;;;;5036216;28;20068;-73
2023/03/11 05:51:27;;;;;;;2.40;0.70;;;-1.40;99.90;;;;;;5036083;28;20049;-73
2023/03/11 05:53:54;;;;;;;1.27;0.50;;;-1.60;99.90;;;;;;5018174;28;20187;-74
2023/03/11 05:56:21;;;;;;;3.13;0.50;;;-0.90;99.90;;;;;;5018444;28;20136;-74
2023/03/11 05:58:47;;;;;;;2.13;0.88;;;-1.00;99.90;;;;;;5018165;28;20500;-74
2023/03/11 06:01:16;;;;;;;1.85;0.60;;;-1.60;99.90;;;;;;5037002;28;20041;-74
2023/03/11 06:03:42;;;;;;;3.25;0.60;;;-0.80;99.90;;;;;;5018988;28;20128;-74
2023/03/11 06:06:10;;;;;;;1.35;0.40;;;-1.10;99.90;;;;;;5035323;28;20133;-75
2023/03/11 06:08:36;;;;;;;2.28;0.63;;;-2.10;99.90;;;;;;5001753;28;20093;-75
2023/03/11 06:11:04;;;;;;;1.75;0.50;;;-0.90;99.90;;;;;;5018179;28;20056;-75
2023/03/11 06:13:30;;;;;;;4.68;0.55;;;-1.90;99.90;;;;;;5035710;28;20049;-74
2023/03/11 06:15:56;;;;;;;2.15;0.40;;;-1.80;99.90;;;;;;5002511;28;20136;-74
2023/03/11 06:18:22;;;;;;;0.90;0.30;;;-1.00;99.90;;;;;;5018100;28;20045;-76
2023/03/11 06:20:48;;;;;;;1.60;0.50;;;-0.60;99.90;;;;;;5018163;28;20057;-76
2023/03/11 06:23:13;;;;;;;1.55;0.50;;;-1.30;99.90;;;;;;5001751;28;20061;-75
2023/03/11 06:25:39;;;;;;;2.03;0.47;;;-2.30;99.90;;;;;;5035976;28;20049;-75
2023/03/11 06:28:05;;;;;;;2.50;0.50;;;-2.40;99.90;;;;;;5017754;28;20049;-76
2023/03/11 06:30:31;;;;;;;2.33;0.80;;;-2.00;99.90;;;;;;5018341;28;20044;-76
2023/03/11 06:32:56;;;;;;;2.83;0.40;;;-2.20;99.90;;;;;;5035783;28;20061;-76
2023/03/11 06:35:22;;;;;;;2.72;0.50;;;-1.70;99.90;;;;;;5017892;28;20041;-76
2023/03/11 06:37:48;;;;;;;3.13;0.95;;;-1.60;99.90;;;;;;5035712;28;20432;-77
2023/03/11 06:40:14;;;;;;;4.63;0.60;;;-2.00;99.90;;;;;;4985047;28;20512;-77
2023/03/11 06:42:39;;;;;;;1.85;0.52;;;-0.70;99.90;;;;;;5021163;28;20053;-76
2023/03/11 06:45:06;;;;;;;3.05;0.40;;;-2.40;99.90;;;;;;5039959;28;20142;-77
2023/03/11 06:47:31;;;;;;;1.40;0.40;;;-2.30;99.90;;;;;;5017520;28;20081;-77
2023/03/11 06:49:57;;;;;;;0.57;0.38;;;-1.00;99.90;;;;;;5017772;28;20081;-77
2023/03/11 06:52:23;;;;;;;0.93;0.40;;;-0.80;99.90;;;;;;5034802;28;20374;-77
2023/03/11 06:54:49;;;;;;;0.90;0.45;;;-2.50;99.90;;;;;;5017369;28;20128;-77
2023/03/11 06:57:15;;;;;;;2.42;0.50;;;-2.20;99.90;;;;;;5034593;28;20045;-77
2023/03/11 06:59:41;;;;;;;5.07;0.60;;;-2.30;99.90;;;;;;5035171;28;20420;-77
2023/03/11 07:02:12;;;;;;;2.65;0.63;;;-2.30;99.90;;;;;;5000938;28;20140;-77
2023/03/11 07:04:37;;;;;;;2.35;0.50;;;-1.50;99.90;;;;;;5034401;28;20048;-77
2023/03/11 07:07:03;;;;;;;2.25;0.40;;;-1.80;99.90;;;;;;5017109;28;20065;-77
2023/03/11 07:09:29;;;;;;;1.80;0.50;;;-2.30;99.90;;;;;;5000469;28;20111;-76
2023/03/11 07:11:54;;;;;;;1.70;0.50;;;-2.00;99.90;;;;;;5016911;28;20059;-77
2023/03/11 07:14:20;;;;;;;1.48;0.47;;;-2.20;99.90;;;;;;5034673;28;20459;-77
2023/03/11 07:16:46;;;;;;;2.17;0.70;;;-1.20;99.90;;;;;;5017155;28;20052;-77
2023/03/11 07:19:12;;;;;;;3.75;0.50;;;-2.00;99.90;;;;;;5000528;28;20104;-78
2023/03/11 07:21:38;;;;;;;3.83;0.50;;;-1.70;99.90;;;;;;5000263;28;20041;-77
2023/03/11 07:24:05;;;;;;;1.92;0.47;;;-3.00;99.90;;;;;;5015820;28;20477;-76
2023/03/11 07:26:33;;;;;;;1.35;0.47;;;-1.90;99.90;;;;;;5000361;28;20049;-77
2023/03/11 07:28:58;;;;;;;3.42;1.27;;;-1.70;99.90;;;;;;5034705;28;20060;-77
2023/03/11 07:31:30;;;;;;;2.22;0.60;;;-1.70;99.90;;;;;;5034217;28;20488;-77
2023/03/11 07:34:01;;;;;;;2.30;0.68;;;-2.00;99.90;;;;;;5016875;28;20048;-76
2023/03/11 07:36:27;;;;;;;1.80;0.60;;;-1.00;99.90;;;;;;5033387;28;20049;-77
2023/03/11 07:38:58;;;;;;;1.98;0.50;;;-1.90;99.90;;;;;;5033882;28;20142;-76
2023/03/11 07:41:25;;;;;;;1.88;0.40;;;-1.30;99.90;;;;;;5016730;28;20053;-76
2023/03/11 07:43:54;;;;;;;1.35;0.57;;;-1.70;99.90;;;;;;5035245;28;20049;-76
2023/03/11 07:46:21;;;;;;;1.38;0.50;;;-1.90;99.90;;;;;;5017335;28;20056;-76
2023/03/11 07:48:48;;;;;;;4.57;0.60;;;-1.50;99.90;;;;;;5033483;28;20041;-75
2023/03/11 07:51:20;;;;;;;3.17;0.82;;;-1.10;99.90;;;;;;5025857;28;20534;-75
2023/03/11 07:53:46;;;;;;;4.18;1.05;;;-1.80;99.90;;;;;;5054020;28;20045;-75
2023/03/11 07:56:14;;;;;;;0.63;0.40;;;-0.90;99.90;;;;;;5036121;28;20045;-75
2023/03/11 07:58:40;;;;;;;2.17;0.50;;;-1.20;99.90;;;;;;5019245;28;20045;-76
2023/03/11 08:01:11;;;;;;;1.30;0.50;;;-1.60;99.90;;;;;;5053626;28;20045;-75
2023/03/11 08:03:38;;;;;;;3.55;0.55;;;-1.30;99.90;;;;;;5036095;28;20499;-74
2023/03/11 08:06:13;;;;;;;2.97;0.52;;;-1.50;99.90;;;;;;5052818;28;20155;-74
2023/03/11 08:08:39;;;;;;;2.05;0.60;;;-1.30;99.90;;;;;;5053526;28;20155;-73
2023/03/11 08:11:05;;;;;;;3.00;0.52;;;-1.50;99.90;;;;;;5035729;28;20104;-73
2023/03/11 08:13:31;;;;;;;2.05;0.65;;;-1.20;99.90;;;;;;5053304;28;20503;-74
2023/03/11 08:15:57;;;;;;;0.77;0.50;;;-1.00;99.90;;;;;;5053397;28;20041;-73
2023/03/11 08:18:23;;;;;;;1.77;0.50;;;-1.30;99.90;;;;;;5053112;28;20044;-73
2023/03/11 08:20:49;;;;;;;5.85;0.82;;;-1.30;99.90;;;;;;5053392;28;20060;-73
2023/03/11 08:23:15;;;;;;;2.22;0.50;;;0.20;99.90;;;;;;5035836;28;20067;-72
2023/03/11 08:25:41;;;;;;;3.78;0.57;;;-1.30;99.90;;;;;;5035602;28;20044;-73
2023/03/11 08:28:07;;;;;;;2.45;0.45;;;-1.20;99.90;;;;;;5019207;28;20084;-72
2023/03/11 08:30:34;;;;;;;3.05;0.40;;;-1.10;99.90;;;;;;5035536;28;20044;-73
2023/03/11 08:33:00;;;;;;;1.55;0.40;;;-0.90;99.90;;;;;;5035306;28;20041;-72
2023/03/11 08:35:26;;;;;;;1.80;0.60;;;-0.80;99.90;;;;;;5052904;28;20052;-72
2023/03/11 08:37:52;;;;;;;4.13;1.20;;;-0.40;99.90;;;;;;5053505;28;20056;-72
2023/03/11 08:40:18;;;;;;;7.05;2.10;;;-1.00;99.90;;;;;;5053322;28;20037;-72
2023/03/11 08:42:44;;;;;;;3.92;0.80;;;-0.90;99.90;;;;;;5035789;28;20059;-72
2023/03/11 08:45:13;;;;;;;2.90;0.60;;;-0.90;99.90;;;;;;5054374;28;20127;-72
2023/03/11 08:47:39;;;;;;;3.78;0.60;;;0.20;99.90;;;;;;5053877;28;20080;-71
2023/03/11 08:50:13;;;;;;;4.90;1.60;;;-0.40;99.90;;;;;;5052883;28;20485;-70
2023/03/11 08:52:38;;;;;;;;;;;-0.70;99.90;;;;;;5053432;28;20052;-70
2023/03/11 08:55:05;;;;;;;2.92;0.50;;;1.40;99.90;;;;;;5034680;28;19921;-72
2023/03/11 08:57:31;;;;;;;3.70;0.73;;;-0.60;99.90;;;;;;5052337;28;20044;-71
2023/03/11 08:59:57;;;;;;;1.70;1.05;;;-0.50;99.90;;;;;;5035912;28;20114;-71
2023/03/11 09:02:26;;;;;;;7.63;0.60;;;-0.30;99.90;;;;;;5056863;28;20090;-70
2023/03/11 09:04:52;;;;;;;2.30;0.40;;;-0.50;99.90;;;;;;5022878;28;20055;-69
2023/03/11 09:07:18;;;;;;;3.58;0.57;;;-0.40;99.90;;;;;;5056899;28;20123;-70
2023/03/11 09:09:44;;;;;;;1.52;0.60;;;-0.40;99.90;;;;;;5056697;28;20128;-70
2023/03/11 09:12:12;;;;;;;4.45;0.50;;;0.80;99.90;;;;;;5006119;28;20060;-70
2023/03/11 09:14:40;;;;;;;1.73;0.50;;;-0.30;99.90;;;;;;5038944;28;20052;-70
2023/03/11 09:17:07;;;;;;;4.15;1.17;;;-0.20;99.90;;;;;;5056594;28;20082;-70
2023/03/11 09:19:33;;;;;;;0.95;0.50;;;0.00;99.90;;;;;;5056802;28;20110;-70
2023/03/11 09:22:00;;;;;;;1.52;0.65;;;-0.10;99.90;;;;;;5039002;28;20079;-67
2023/03/11 09:24:26;;;;;;;2.85;0.60;;;0.00;99.90;;;;;;5056557;28;20078;-69
2023/03/11 09:26:51;;;;;;;2.13;0.55;;;0.40;99.90;;;;;;5039112;28;20105;-68
2023/03/11 09:29:17;;;;;;;2.80;0.73;;;0.30;99.90;;;;;;5038769;28;20568;-67
2023/03/11 09:31:43;;;;;;;2.72;0.60;;;1.60;99.90;;;;;;5022535;28;20392;-67
2023/03/11 09:34:11;;;;;;;2.20;0.60;;;-0.10;99.90;;;;;;5038913;28;20174;-68
2023/03/11 09:36:39;;;;;;;1.30;0.50;;;0.80;99.90;;;;;;5021974;28;20053;-67
2023/03/11 09:39:05;;;;;;;3.28;0.60;;;1.30;99.90;;;;;;5056256;28;20048;-68
2023/03/11 09:41:51;;;;;;;4.00;0.50;;;0.20;99.90;;;;;;5038866;28;20049;-69
2023/03/11 09:44:33;;;;;;;3.63;0.70;;;-0.20;99.90;;;;;;5044102;28;20496;-70
2023/03/11 09:47:10;;;;;;;1.67;0.50;;;-0.10;99.90;;;;;;5032928;28;20138;-71
2023/03/11 09:49:39;;;;;;;1.35;0.70;;;0.20;99.90;;;;;;5008036;28;20461;-70
2023/03/11 09:52:12;;;;;;;1.33;0.63;;;0.00;99.90;;;;;;5027931;28;20049;-71
2023/03/11 09:54:51;;;;;;;3.72;0.57;;;0.20;99.90;;;;;;5007580;28;20116;-71
2023/03/11 09:57:21;;;;;;;3.17;0.80;;;0.20;99.90;;;;;;5024842;28;20057;-71
2023/03/11 09:59:47;;;;;;;4.22;0.50;;;0.40;99.90;;;;;;5008774;28;20045;-72
2023/03/11 10:02:21;;;;;;;2.45;0.63;;;0.20;99.90;;;;;;5009139;28;20057;-72
2023/03/11 10:05:08;;;;;;;7.03;0.90;;;1.50;99.90;;;;;;5024152;28;20489;-72
2023/03/11 10:07:40;;;;;;;5.32;0.70;;;0.30;99.90;;;;;;5026452;28;20081;-71
2023/03/11 10:10:09;;;;;;;1.63;0.60;;;1.10;99.90;;;;;;5006696;28;20049;-71
2023/03/11 10:12:55;;;;;;;3.47;0.70;;;0.40;99.90;;;;;;5026285;28;20079;-72
2023/03/11 10:15:51;;;;;;;3.65;0.60;;;0.40;99.90;;;;;;5023244;28;20038;-72
2023/03/11 10:18:35;;;;;;;2.50;1.10;;;0.50;99.90;;;;;;5008898;28;20038;-71
2023/03/11 10:21:17;;;;;;;4.82;1.10;;;0.60;99.90;;;;;;5009110;28;20053;-72
2023/03/11 10:24:11;;;;;;;2.88;0.90;;;0.60;99.90;;;;;;5025861;28;20046;-73
2023/03/11 10:26:53;;;;;;;1.58;0.70;;;0.50;99.90;;;;;;5024084;28;20096;-74
2023/03/11 10:29:27;;;;;;;2.67;0.60;;;1.00;99.90;;;;;;5007015;28;20080;-73
2023/03/11 10:31:56;;;;;;;0.95;0.52;;;0.80;99.90;;;;;;5009886;28;20387;-73
2023/03/11 10:34:26;;;;;;;7.50;1.60;;;0.90;99.90;;;;;;5024819;28;20128;-73
2023/03/11 10:37:03;;;;;;;2.92;0.70;;;0.90;99.90;;;;;;5007728;28;20042;-73
2023/03/11 10:39:33;;;;;;;2.42;0.60;;;2.00;99.90;;;;;;5024842;28;20037;-73
2023/03/11 10:42:04;;;;;;;3.65;0.73;;;2.00;99.90;;;;;;5008827;28;20041;-72
2023/03/11 10:44:39;;;;;;;5.43;1.08;;;1.10;99.90;;;;;;5008925;28;20115;-72
2023/03/11 10:47:11;;;;;;;2.55;0.70;;;1.20;99.90;;;;;;5007557;28;20045;-75
2023/03/11 10:49:37;;;;;;;2.97;0.68;;;1.40;99.90;;;;;;5028902;28;20382;-73
2023/03/11 10:52:03;;;;;;;4.05;0.50;;;2.40;99.90;;;;;;5024268;28;20116;-74
2023/03/11 10:54:36;;;;;;;3.10;0.50;;;1.30;99.90;;;;;;5026279;28;20046;-74
2023/03/11 10:57:28;;;;;;;2.28;0.60;;;1.50;99.90;;;;;;4991523;28;20046;-74
2023/03/11 10:59:56;;;;;;;5.25;0.80;;;1.50;99.90;;;;;;5013171;28;20539;-73
2023/03/11 11:02:31;;;;;;;4.03;0.60;;;1.60;99.90;;;;;;5025500;28;20041;-76
2023/03/11 11:05:34;;;;;;;5.97;2.13;;;1.60;99.90;;;;;;5011212;28;20046;-76
2023/03/11 11:08:14;;;;;;;1.50;0.50;;;1.90;99.90;;;;;;5012015;28;20048;-76
2023/03/11 11:11:01;;;;;;;1.00;0.60;;;1.90;99.90;;;;;;5007263;28;20128;-76
2023/03/11 11:13:30;;;;;;;5.40;0.52;;;1.90;99.90;;;;;;5007835;28;20076;-75
2023/03/11 11:16:15;;;;;;;3.47;0.65;;;2.50;99.90;;;;;;5025596;28;20045;-75
2023/03/11 11:18:48;;;;;;;2.42;0.80;;;2.00;99.90;;;;;;5027363;28;20543;-76
2023/03/11 11:21:26;;;;;;;3.15;0.57;;;2.90;99.90;;;;;;5006401;28;20058;-76
2023/03/11 11:24:25;;;;;;;3.55;1.00;;;2.40;99.90;;;;;;5024040;28;20481;-79
2023/03/11 11:27:10;;;;;;;2.67;0.70;;;2.30;99.90;;;;;;5012772;28;20073;-79
2023/03/11 11:29:36;;;;;;;2.15;0.63;;;2.60;99.90;;;;;;5012645;28;20135;-79
2023/03/11 11:32:11;;;;;;;5.45;1.17;;;2.20;99.90;;;;;;5006956;28;20139;-79
2023/03/11 11:34:37;;;;;;;3.72;0.90;;;2.40;99.90;;;;;;5008987;28;20059;-78
2023/03/11 11:37:04;;;;;;;3.35;0.80;;;2.40;99.90;;;;;;5008359;28;20503;-78
2023/03/11 11:39:43;;;;;;;5.35;0.70;;;2.50;99.90;;;;;;5023599;28;20088;-77
2023/03/11 11:42:12;;;;;;;1.85;0.60;;;2.60;99.90;;;;;;5024470;28;20496;-76
2023/03/11 11:44:40;;;;;;;5.95;0.50;;;2.50;99.90;;;;;;5007805;28;20103;-76
2023/03/11 11:47:16;;;;;;;1.50;0.60;;;2.50;99.90;;;;;;4991422;28;20488;-77
2023/03/11 11:49:50;;;;;;;3.33;0.70;;;2.60;99.90;;;;;;5004765;28;20042;-77
2023/03/11 11:52:24;;;;;;;2.08;0.70;;;2.70;99.90;;;;;;5003936;28;20572;-77
2023/03/11 11:54:57;;;;;;;1.77;0.50;;;2.90;99.90;;;;;;5005699;28;20096;-77
2023/03/11 11:57:23;;;;;;;3.55;0.60;;;2.80;99.90;;;;;;5009195;28;20113;-77
2023/03/11 11:59:49;;;;;;;1.30;0.50;;;2.80;99.90;;;;;;4989601;28;20046;-78
2023/03/11 12:02:18;;;;;;;0.70;0.50;;;2.70;99.90;;;;;;4974539;28;20092;-75
2023/03/11 12:04:52;;;;;;;1.58;0.40;;;3.00;99.90;;;;;;4989439;28;20124;-77
2023/03/11 12:07:32;;;;;;;2.75;0.57;;;2.90;99.90;;;;;;5008721;28;20056;-75
2023/03/11 12:10:11;;;;;;;2.53;0.52;;;2.90;99.90;;;;;;5001621;28;20054;-76
2023/03/11 12:12:57;;;;;;;3.67;0.57;;;3.10;99.90;;;;;;5003410;28;20141;-76
2023/03/11 12:15:27;;;;;;;5.38;0.70;;;2.00;99.90;;;;;;5004362;28;20046;-73
2023/03/11 12:18:01;;;;;;;1.70;0.82;;;3.10;99.90;;;;;;5007673;28;20065;-73
2023/03/11 12:20:36;;;;;;;2.03;0.65;;;3.60;99.90;;;;;;5011261;28;20046;-74
2023/03/11 12:23:26;;;;;;;2.47;0.70;;;3.10;99.90;;;;;;5003328;28;20046;-75
2023/03/11 12:26:04;;;;;;;3.92;0.80;;;3.20;99.90;;;;;;5001418;28;20045;-73
2023/03/11 12:28:43;;;;;;;1.20;0.70;;;3.00;99.90;;;;;;5004639;28;20450;-72
2023/03/11 12:31:10;;;;;;;3.63;0.70;;;3.10;99.90;;;;;;5001790;28;20046;-72
2023/03/11 12:33:41;;;;;;;3.30;0.68;;;3.40;99.90;;;;;;4989528;28;20054;-74
2023/03/11 12:36:20;;;;;;;1.67;0.60;;;3.20;99.90;;;;;;5006727;28;20057;-74
2023/03/11 12:38:46;;;;;;;3.10;0.70;;;4.00;99.90;;;;;;5011826;28;20049;-73
2023/03/11 12:41:15;;;;;;;4.85;0.70;;;3.30;99.90;;;;;;4998989;28;20085;-74
2023/03/11 12:43:41;;;;;;;1.85;0.75;;;3.50;99.90;;;;;;5012470;28;20034;-71
2023/03/11 12:46:09;;;;;;;3.22;0.52;;;3.60;99.90;;;;;;4997719;28;20057;-71
2023/03/11 12:48:40;;;;;;;2.63;0.57;;;3.80;99.90;;;;;;5027035;28;20103;-73
2023/03/11 12:51:23;;;;;;;1.20;0.60;;;3.40;99.90;;;;;;5008527;28;20133;-73
2023/03/11 12:53:49;;;;;;;2.42;0.70;;;3.60;99.90;;;;;;4997498;28;20049;-72
2023/03/11 12:56:21;;;;;;;2.47;0.52;;;3.50;99.90;;;;;;4980633;28;20050;-73
2023/03/11 12:59:08;;;;;;;4.55;1.20;;;3.90;99.90;;;;;;5005249;28;20053;-73
2023/03/11 13:01:40;;;;;;;1.02;0.40;;;3.50;99.90;;;;;;5013099;28;20050;-72